sensor_id;sensor_type;location;lat;lon;timestamp;pressure;altitude;pressure_sealevel;temperature;humidity
77793;BME280;66983;51.438;5.438;2023-05-29T00:00:07;102092.00;;;14.23;70.30
77793;BME280;66983;51.438;5.438;2023-05-29T00:02:35;102103.75;;;14.19;71.47
77793;BME280;66983;51.438;5.438;2023-05-29T00:05:01;102103.00;;;14.14;71.96
77793;BME280;66983;51.438;5.438;2023-05-29T00:07:31;102105.94;;;14.06;71.28
77793;BME280;66983;51.438;5.438;2023-05-29T00:10:00;102098.06;;;14.02;72.25
77793;BME280;66983;51.438;5.438;2023-05-29T00:12:26;102102.81;;;13.93;71.40
77793;BME280;66983;51.438;5.438;2023-05-29T00:14:51;102105.69;;;13.87;73.14
77793;BME280;66983;51.438;5.438;2023-05-29T00:17:17;102104.00;;;13.83;73.09
77793;BME280;66983;51.438;5.438;2023-05-29T00:19:43;102117.59;;;13.77;71.95
77793;BME280;66983;51.438;5.438;2023-05-29T00:22:08;102113.19;;;13.76;72.15
77793;BME280;66983;51.438;5.438;2023-05-29T00:24:34;102114.31;;;13.69;72.25
77793;BME280;66983;51.438;5.438;2023-05-29T00:27:00;102117.19;;;13.63;73.60
77793;BME280;66983;51.438;5.438;2023-05-29T00:29:26;102116.38;;;13.59;72.27
77793;BME280;66983;51.438;5.438;2023-05-29T00:31:53;102121.88;;;13.55;73.11
77793;BME280;66983;51.438;5.438;2023-05-29T00:34:22;102121.06;;;13.53;73.00
77793;BME280;66983;51.438;5.438;2023-05-29T00:36:50;102131.31;;;13.39;72.13
77793;BME280;66983;51.438;5.438;2023-05-29T00:39:16;102126.88;;;13.38;73.63
77793;BME280;66983;51.438;5.438;2023-05-29T00:41:42;102127.91;;;13.34;73.29
77793;BME280;66983;51.438;5.438;2023-05-29T00:44:07;102129.75;;;13.32;73.49
77793;BME280;66983;51.438;5.438;2023-05-29T00:46:35;102128.91;;;13.30;72.83
77793;BME280;66983;51.438;5.438;2023-05-29T00:49:01;102136.22;;;13.24;73.47
77793;BME280;66983;51.438;5.438;2023-05-29T00:51:29;102141.63;;;13.23;71.58
77793;BME280;66983;51.438;5.438;2023-05-29T00:53:57;102134.59;;;13.19;72.69
77793;BME280;66983;51.438;5.438;2023-05-29T00:56:24;102131.97;;;13.17;71.27
77793;BME280;66983;51.438;5.438;2023-05-29T00:58:51;102137.53;;;13.08;72.49
77793;BME280;66983;51.438;5.438;2023-05-29T01:01:20;102135.91;;;13.03;72.86
77793;BME280;66983;51.438;5.438;2023-05-29T01:03:50;102141.13;;;13.07;72.00
77793;BME280;66983;51.438;5.438;2023-05-29T01:06:19;102140.38;;;13.02;70.69
77793;BME280;66983;51.438;5.438;2023-05-29T01:08:46;102152.19;;;12.95;71.50
77793;BME280;66983;51.438;5.438;2023-05-29T01:11:31;102146.06;;;12.91;71.75
77793;BME280;66983;51.438;5.438;2023-05-29T01:14:06;102158.59;;;12.89;71.18
77793;BME280;66983;51.438;5.438;2023-05-29T01:16:42;102162.19;;;12.88;71.33
77793;BME280;66983;51.438;5.438;2023-05-29T01:19:40;102164.06;;;12.85;70.01
77793;BME280;66983;51.438;5.438;2023-05-29T01:22:18;102156.31;;;12.74;70.33
77793;BME280;66983;51.438;5.438;2023-05-29T01:27:41;102160.06;;;12.69;69.46
77793;BME280;66983;51.438;5.438;2023-05-29T01:30:09;102160.94;;;12.69;68.12
77793;BME280;66983;51.438;5.438;2023-05-29T01:32:36;102157.56;;;12.61;68.02
77793;BME280;66983;51.438;5.438;2023-05-29T01:35:02;102162.91;;;12.61;68.55
77793;BME280;66983;51.438;5.438;2023-05-29T01:37:28;102159.31;;;12.62;67.75
77793;BME280;66983;51.438;5.438;2023-05-29T01:39:55;102160.34;;;12.56;68.89
77793;BME280;66983;51.438;5.438;2023-05-29T01:42:22;102162.19;;;12.54;68.05
77793;BME280;66983;51.438;5.438;2023-05-29T01:44:49;102160.59;;;12.47;67.07
77793;BME280;66983;51.438;5.438;2023-05-29T01:47:15;102160.91;;;12.35;68.07
77793;BME280;66983;51.438;5.438;2023-05-29T01:49:42;102164.50;;;12.34;67.10
77793;BME280;66983;51.438;5.438;2023-05-29T01:52:09;102162.81;;;12.30;66.76
77793;BME280;66983;51.438;5.438;2023-05-29T01:54:36;102174.34;;;12.32;66.58
77793;BME280;66983;51.438;5.438;2023-05-29T01:57:02;102159.22;;;12.31;68.44
77793;BME280;66983;51.438;5.438;2023-05-29T01:59:33;102163.78;;;12.28;66.48
77793;BME280;66983;51.438;5.438;2023-05-29T02:02:06;102170.06;;;12.25;67.93
77793;BME280;66983;51.438;5.438;2023-05-29T02:04:31;102171.13;;;12.19;67.08
77793;BME280;66983;51.438;5.438;2023-05-29T02:06:57;102162.28;;;12.16;68.13
77793;BME280;66983;51.438;5.438;2023-05-29T02:09:23;102164.16;;;12.12;67.34
77793;BME280;66983;51.438;5.438;2023-05-29T02:11:49;102165.03;;;12.13;68.88
77793;BME280;66983;51.438;5.438;2023-05-29T02:14:14;102160.72;;;12.07;67.40
77793;BME280;66983;51.438;5.438;2023-05-29T02:16:40;102153.69;;;12.03;67.47
77793;BME280;66983;51.438;5.438;2023-05-29T02:19:06;102166.13;;;12.04;68.97
77793;BME280;66983;51.438;5.438;2023-05-29T02:21:33;102169.72;;;12.03;67.47
77793;BME280;66983;51.438;5.438;2023-05-29T02:23:58;102163.56;;;12.00;67.77
77793;BME280;66983;51.438;5.438;2023-05-29T02:26:24;102174.25;;;12.00;67.53
77793;BME280;66983;51.438;5.438;2023-05-29T02:28:50;102179.66;;;11.97;68.17
77793;BME280;66983;51.438;5.438;2023-05-29T02:31:15;102175.22;;;11.96;67.36
77793;BME280;66983;51.438;5.438;2023-05-29T02:33:41;102171.75;;;11.94;68.17
77793;BME280;66983;51.438;5.438;2023-05-29T02:36:07;102178.06;;;11.89;67.35
77793;BME280;66983;51.438;5.438;2023-05-29T02:38:35;102179.88;;;11.87;67.97
77793;BME280;66983;51.438;5.438;2023-05-29T02:41:01;102176.41;;;11.84;68.22
77793;BME280;66983;51.438;5.438;2023-05-29T02:43:27;102181.81;;;11.81;67.99
77793;BME280;66983;51.438;5.438;2023-05-29T02:45:54;102182.69;;;11.81;67.77
77793;BME280;66983;51.438;5.438;2023-05-29T02:48:20;102183.66;;;11.77;68.05
77793;BME280;66983;51.438;5.438;2023-05-29T02:50:46;102188.22;;;11.71;68.34
77793;BME280;66983;51.438;5.438;2023-05-29T02:53:11;102190.16;;;11.66;68.52
77793;BME280;66983;51.438;5.438;2023-05-29T02:55:37;102196.34;;;11.68;68.38
77793;BME280;66983;51.438;5.438;2023-05-29T02:58:03;102191.03;;;11.66;68.66
77793;BME280;66983;51.438;5.438;2023-05-29T03:00:29;102191.16;;;11.60;68.56
77793;BME280;66983;51.438;5.438;2023-05-29T03:02:57;102201.78;;;11.63;68.55
77793;BME280;66983;51.438;5.438;2023-05-29T03:05:22;102192.06;;;11.59;69.53
77793;BME280;66983;51.438;5.438;2023-05-29T03:07:48;102198.31;;;11.58;68.93
77793;BME280;66983;51.438;5.438;2023-05-29T03:10:14;102193.91;;;11.55;69.05
77793;BME280;66983;51.438;5.438;2023-05-29T03:12:42;102189.50;;;11.53;68.95
77793;BME280;66983;51.438;5.438;2023-05-29T03:15:10;102192.38;;;11.44;69.31
77793;BME280;66983;51.438;5.438;2023-05-29T03:17:36;102193.31;;;11.43;70.35
77793;BME280;66983;51.438;5.438;2023-05-29T03:20:04;102203.03;;;11.44;70.11
77793;BME280;66983;51.438;5.438;2023-05-29T03:22:36;102191.56;;;11.42;70.05
77793;BME280;66983;51.438;5.438;2023-05-29T03:25:05;102195.19;;;11.38;70.18
77793;BME280;66983;51.438;5.438;2023-05-29T03:27:33;102195.25;;;11.35;70.64
77793;BME280;66983;51.438;5.438;2023-05-29T03:30:06;102198.88;;;11.31;70.41
77793;BME280;66983;51.438;5.438;2023-05-29T03:32:32;102199.81;;;11.28;70.77
77793;BME280;66983;51.438;5.438;2023-05-29T03:34:58;102193.59;;;11.28;70.62
77793;BME280;66983;51.438;5.438;2023-05-29T03:37:23;102196.25;;;11.29;70.79
77793;BME280;66983;51.438;5.438;2023-05-29T03:39:50;102199.03;;;11.23;71.25
77793;BME280;66983;51.438;5.438;2023-05-29T03:42:17;102194.69;;;11.17;71.30
77793;BME280;66983;51.438;5.438;2023-05-29T03:44:43;102201.84;;;11.17;71.24
77793;BME280;66983;51.438;5.438;2023-05-29T03:47:10;102198.22;;;11.18;71.42
77793;BME280;66983;51.438;5.438;2023-05-29T03:49:36;102200.09;;;11.16;71.99
77793;BME280;66983;51.438;5.438;2023-05-29T03:52:03;102205.41;;;11.16;71.44
77793;BME280;66983;51.438;5.438;2023-05-29T03:54:28;102213.47;;;11.14;71.46
77793;BME280;66983;51.438;5.438;2023-05-29T03:56:54;102217.88;;;11.15;71.99
77793;BME280;66983;51.438;5.438;2023-05-29T03:59:20;102215.28;;;11.12;72.11
77793;BME280;66983;51.438;5.438;2023-05-29T04:01:47;102203.66;;;11.15;72.51
77793;BME280;66983;51.438;5.438;2023-05-29T04:04:13;102216.13;;;11.14;72.55
77793;BME280;66983;51.438;5.438;2023-05-29T04:06:38;102222.38;;;11.13;72.33
77793;BME280;66983;51.438;5.438;2023-05-29T04:09:05;102223.19;;;11.17;72.43
77793;BME280;66983;51.438;5.438;2023-05-29T04:11:35;102222.19;;;11.21;72.38
77793;BME280;66983;51.438;5.438;2023-05-29T04:14:01;102231.13;;;11.18;72.04
77793;BME280;66983;51.438;5.438;2023-05-29T04:16:28;102222.31;;;11.16;71.46
77793;BME280;66983;51.438;5.438;2023-05-29T04:18:55;102226.94;;;11.07;71.86
77793;BME280;66983;51.438;5.438;2023-05-29T04:21:23;102220.72;;;11.06;72.31
77793;BME280;66983;51.438;5.438;2023-05-29T04:23:49;102227.69;;;11.13;72.65
77793;BME280;66983;51.438;5.438;2023-05-29T04:26:14;102239.13;;;11.20;71.74
77793;BME280;66983;51.438;5.438;2023-05-29T04:28:40;102239.16;;;11.18;72.00
77793;BME280;66983;51.438;5.438;2023-05-29T04:31:06;102251.75;;;11.12;71.39
77793;BME280;66983;51.438;5.438;2023-05-29T04:33:32;102247.22;;;11.15;71.80
77793;BME280;66983;51.438;5.438;2023-05-29T04:36:02;102243.66;;;11.16;71.01
77793;BME280;66983;51.438;5.438;2023-05-29T04:38:29;102238.06;;;11.29;71.35
77793;BME280;66983;51.438;5.438;2023-05-29T04:40:56;102240.19;;;11.56;70.03
77793;BME280;66983;51.438;5.438;2023-05-29T04:43:24;102234.97;;;11.95;68.87
77793;BME280;66983;51.438;5.438;2023-05-29T04:46:00;102235.25;;;12.21;66.84
77793;BME280;66983;51.438;5.438;2023-05-29T04:48:29;102257.00;;;12.43;66.51
77793;BME280;66983;51.438;5.438;2023-05-29T04:50:54;102253.50;;;12.39;66.33
77793;BME280;66983;51.438;5.438;2023-05-29T04:53:20;102247.47;;;12.31;66.58
77793;BME280;66983;51.438;5.438;2023-05-29T04:55:45;102243.34;;;12.53;65.57
77793;BME280;66983;51.438;5.438;2023-05-29T04:58:11;102236.63;;;12.73;64.93
77793;BME280;66983;51.438;5.438;2023-05-29T05:00:38;102238.59;;;12.66;66.01
77793;BME280;66983;51.438;5.438;2023-05-29T05:03:03;102240.22;;;12.72;64.81
77793;BME280;66983;51.438;5.438;2023-05-29T05:05:29;102248.78;;;12.86;64.75
77793;BME280;66983;51.438;5.438;2023-05-29T05:07:57;102248.09;;;13.12;64.05
77793;BME280;66983;51.438;5.438;2023-05-29T05:10:23;102255.84;;;13.24;64.03
77793;BME280;66983;51.438;5.438;2023-05-29T05:12:49;102248.00;;;13.49;62.59
77793;BME280;66983;51.438;5.438;2023-05-29T05:15:17;102258.88;;;13.74;60.60
77793;BME280;66983;51.438;5.438;2023-05-29T05:17:43;102249.53;;;13.56;62.00
77793;BME280;66983;51.438;5.438;2023-05-29T05:20:09;102256.88;;;13.18;64.33
77793;BME280;66983;51.438;5.438;2023-05-29T05:22:36;102257.16;;;13.06;63.99
77793;BME280;66983;51.438;5.438;2023-05-29T05:25:02;102262.91;;;12.91;64.10
77793;BME280;66983;51.438;5.438;2023-05-29T05:27:29;102261.81;;;12.64;65.29
77793;BME280;66983;51.438;5.438;2023-05-29T05:29:55;102265.44;;;12.62;66.16
77793;BME280;66983;51.438;5.438;2023-05-29T05:32:21;102262.63;;;12.68;65.82
77793;BME280;66983;51.438;5.438;2023-05-29T05:34:53;102260.75;;;12.71;64.31
77793;BME280;66983;51.438;5.438;2023-05-29T05:37:18;102267.16;;;12.64;65.37
77793;BME280;66983;51.438;5.438;2023-05-29T05:39:44;102275.94;;;12.71;65.18
77793;BME280;66983;51.438;5.438;2023-05-29T05:42:10;102270.94;;;12.91;63.40
77793;BME280;66983;51.438;5.438;2023-05-29T05:44:57;102274.69;;;13.19;63.81
77793;BME280;66983;51.438;5.438;2023-05-29T05:47:23;102273.97;;;13.45;61.75
77793;BME280;66983;51.438;5.438;2023-05-29T05:49:49;102275.22;;;13.32;62.81
77793;BME280;66983;51.438;5.438;2023-05-29T05:52:17;102277.50;;;13.13;63.79
77793;BME280;66983;51.438;5.438;2023-05-29T05:54:43;102265.47;;;13.30;63.73
77793;BME280;66983;51.438;5.438;2023-05-29T05:57:11;102263.78;;;13.25;63.04
77793;BME280;66983;51.438;5.438;2023-05-29T05:59:37;102262.25;;;13.17;62.52
77793;BME280;66983;51.438;5.438;2023-05-29T06:02:04;102268.47;;;13.19;63.60
77793;BME280;66983;51.438;5.438;2023-05-29T06:04:29;102269.34;;;13.19;64.05
77793;BME280;66983;51.438;5.438;2023-05-29T06:06:55;102271.78;;;13.27;63.48
77793;BME280;66983;51.438;5.438;2023-05-29T06:09:21;102269.88;;;13.32;62.92
77793;BME280;66983;51.438;5.438;2023-05-29T06:11:48;102270.50;;;13.42;61.54
77793;BME280;66983;51.438;5.438;2023-05-29T06:14:14;102271.53;;;13.36;62.60
77793;BME280;66983;51.438;5.438;2023-05-29T06:16:42;102272.34;;;13.40;63.39
77793;BME280;66983;51.438;5.438;2023-05-29T06:19:08;102280.16;;;13.47;62.57
77793;BME280;66983;51.438;5.438;2023-05-29T06:21:48;102272.09;;;13.49;61.62
77793;BME280;66983;51.438;5.438;2023-05-29T06:24:14;102284.50;;;13.51;62.72
77793;BME280;66983;51.438;5.438;2023-05-29T06:26:40;102291.13;;;13.38;61.64
77793;BME280;66983;51.438;5.438;2023-05-29T06:29:09;102287.72;;;13.32;62.86
77793;BME280;66983;51.438;5.438;2023-05-29T06:31:35;102304.03;;;13.55;61.42
77793;BME280;66983;51.438;5.438;2023-05-29T06:34:01;102292.88;;;13.72;61.14
77793;BME280;66983;51.438;5.438;2023-05-29T06:36:26;102294.22;;;13.86;61.76
77793;BME280;66983;51.438;5.438;2023-05-29T06:38:52;102298.31;;;14.00;60.62
77793;BME280;66983;51.438;5.438;2023-05-29T06:41:18;102307.63;;;14.16;59.97
77793;BME280;66983;51.438;5.438;2023-05-29T06:43:44;102309.13;;;13.97;60.91
77793;BME280;66983;51.438;5.438;2023-05-29T06:46:10;102309.38;;;13.87;60.70
77793;BME280;66983;51.438;5.438;2023-05-29T06:48:36;102307.31;;;13.97;60.93
77793;BME280;66983;51.438;5.438;2023-05-29T06:51:02;102311.31;;;14.12;60.66
77793;BME280;66983;51.438;5.438;2023-05-29T06:53:39;102311.09;;;14.19;60.16
77793;BME280;66983;51.438;5.438;2023-05-29T06:56:06;102313.03;;;14.14;59.87
77793;BME280;66983;51.438;5.438;2023-05-29T06:58:33;102308.28;;;14.24;60.88
77793;BME280;66983;51.438;5.438;2023-05-29T07:00:59;102306.50;;;14.24;59.69
77793;BME280;66983;51.438;5.438;2023-05-29T07:03:31;102309.13;;;14.26;60.36
77793;BME280;66983;51.438;5.438;2023-05-29T07:05:57;102309.88;;;14.30;58.76
77793;BME280;66983;51.438;5.438;2023-05-29T07:08:24;102307.41;;;14.23;57.52
77793;BME280;66983;51.438;5.438;2023-05-29T07:10:51;102313.88;;;14.16;60.17
77793;BME280;66983;51.438;5.438;2023-05-29T07:13:19;102308.44;;;14.19;60.07
77793;BME280;66983;51.438;5.438;2023-05-29T07:15:45;102309.31;;;14.20;58.79
77793;BME280;66983;51.438;5.438;2023-05-29T07:18:12;102308.16;;;14.29;58.88
77793;BME280;66983;51.438;5.438;2023-05-29T07:20:38;102311.22;;;14.46;57.70
77793;BME280;66983;51.438;5.438;2023-05-29T07:23:03;102314.09;;;14.38;57.75
77793;BME280;66983;51.438;5.438;2023-05-29T07:25:29;102314.03;;;14.40;58.33
77793;BME280;66983;51.438;5.438;2023-05-29T07:27:55;102320.44;;;14.36;56.83
77793;BME280;66983;51.438;5.438;2023-05-29T07:30:21;102311.50;;;14.35;57.09
77793;BME280;66983;51.438;5.438;2023-05-29T07:32:47;102308.66;;;14.41;57.66
77793;BME280;66983;51.438;5.438;2023-05-29T07:35:13;102314.03;;;14.41;57.30
77793;BME280;66983;51.438;5.438;2023-05-29T07:37:38;102312.00;;;14.49;56.68
77793;BME280;66983;51.438;5.438;2023-05-29T07:40:04;102315.19;;;14.60;55.72
77793;BME280;66983;51.438;5.438;2023-05-29T07:42:49;102318.03;;;14.56;57.06
77793;BME280;66983;51.438;5.438;2023-05-29T07:45:16;102321.16;;;14.70;56.22
77793;BME280;66983;51.438;5.438;2023-05-29T07:47:42;102317.25;;;14.80;55.37
77793;BME280;66983;51.438;5.438;2023-05-29T07:50:08;102321.66;;;14.81;54.51
77793;BME280;66983;51.438;5.438;2023-05-29T07:52:34;102315.13;;;14.90;55.55
77793;BME280;66983;51.438;5.438;2023-05-29T07:55:00;102325.97;;;14.87;55.17
77793;BME280;66983;51.438;5.438;2023-05-29T07:57:28;102324.94;;;14.91;56.54
77793;BME280;66983;51.438;5.438;2023-05-29T07:59:55;102325.41;;;15.04;56.38
77793;BME280;66983;51.438;5.438;2023-05-29T08:02:22;102322.94;;;15.24;55.93
77793;BME280;66983;51.438;5.438;2023-05-29T08:05:08;102320.63;;;15.38;54.83
77793;BME280;66983;51.438;5.438;2023-05-29T08:07:36;102316.53;;;15.28;53.05
77793;BME280;66983;51.438;5.438;2023-05-29T08:10:02;102329.38;;;15.18;54.60
77793;BME280;66983;51.438;5.438;2023-05-29T08:12:28;102321.84;;;15.30;53.92
77793;BME280;66983;51.438;5.438;2023-05-29T08:14:56;102322.47;;;15.36;53.56
77793;BME280;66983;51.438;5.438;2023-05-29T08:17:22;102327.84;;;15.36;51.96
77793;BME280;66983;51.438;5.438;2023-05-29T08:19:47;102320.56;;;15.40;53.61
77793;BME280;66983;51.438;5.438;2023-05-29T08:22:14;102331.25;;;15.41;52.92
77793;BME280;66983;51.438;5.438;2023-05-29T08:24:40;102324.19;;;15.39;52.73
77793;BME280;66983;51.438;5.438;2023-05-29T08:27:06;102325.94;;;15.40;52.92
77793;BME280;66983;51.438;5.438;2023-05-29T08:29:31;102336.88;;;15.60;53.75
77793;BME280;66983;51.438;5.438;2023-05-29T08:31:57;102330.56;;;15.86;51.20
77793;BME280;66983;51.438;5.438;2023-05-29T08:34:22;102331.09;;;15.72;50.96
77793;BME280;66983;51.438;5.438;2023-05-29T08:36:48;102326.81;;;15.67;50.89
77793;BME280;66983;51.438;5.438;2023-05-29T08:39:14;102338.28;;;15.72;51.27
77793;BME280;66983;51.438;5.438;2023-05-29T08:42:00;102339.31;;;15.68;51.26
77793;BME280;66983;51.438;5.438;2023-05-29T08:44:30;102342.72;;;15.73;51.16
77793;BME280;66983;51.438;5.438;2023-05-29T08:47:01;102328.59;;;15.91;52.05
77793;BME280;66983;51.438;5.438;2023-05-29T08:49:29;102334.06;;;16.11;51.00
77793;BME280;66983;51.438;5.438;2023-05-29T08:52:09;102350.31;;;16.33;50.84
77793;BME280;66983;51.438;5.438;2023-05-29T08:54:36;102338.44;;;16.37;49.56
77793;BME280;66983;51.438;5.438;2023-05-29T08:57:02;102335.31;;;16.26;49.53
77793;BME280;66983;51.438;5.438;2023-05-29T08:59:30;102331.81;;;16.24;48.66
77793;BME280;66983;51.438;5.438;2023-05-29T09:01:56;102341.84;;;16.42;50.39
77793;BME280;66983;51.438;5.438;2023-05-29T09:04:22;102335.75;;;16.37;49.39
77793;BME280;66983;51.438;5.438;2023-05-29T09:06:49;102348.34;;;16.60;49.73
77793;BME280;66983;51.438;5.438;2023-05-29T09:09:15;102349.97;;;16.64;49.25
77793;BME280;66983;51.438;5.438;2023-05-29T09:11:41;102351.19;;;16.79;48.52
77793;BME280;66983;51.438;5.438;2023-05-29T09:14:36;102344.75;;;16.83;48.20
77793;BME280;66983;51.438;5.438;2023-05-29T09:17:03;102344.06;;;16.78;47.55
77793;BME280;66983;51.438;5.438;2023-05-29T09:19:29;102348.38;;;16.82;49.09
77793;BME280;66983;51.438;5.438;2023-05-29T09:24:36;102333.22;;;16.79;49.10
77793;BME280;66983;51.438;5.438;2023-05-29T09:27:03;102344.63;;;16.86;48.82
77793;BME280;66983;51.438;5.438;2023-05-29T09:29:42;102352.59;;;16.89;48.39
77793;BME280;66983;51.438;5.438;2023-05-29T09:32:11;102336.59;;;16.84;49.52
77793;BME280;66983;51.438;5.438;2023-05-29T09:34:38;102343.41;;;16.93;49.17
77793;BME280;66983;51.438;5.438;2023-05-29T09:37:09;102341.41;;;16.98;47.46
77793;BME280;66983;51.438;5.438;2023-05-29T09:42:11;102328.34;;;16.89;47.91
77793;BME280;66983;51.438;5.438;2023-05-29T09:44:37;102334.84;;;17.05;46.70
77793;BME280;66983;51.438;5.438;2023-05-29T09:47:03;102335.72;;;17.06;46.66
77793;BME280;66983;51.438;5.438;2023-05-29T09:49:31;102338.59;;;17.01;48.10
77793;BME280;66983;51.438;5.438;2023-05-29T09:51:57;102338.75;;;17.18;47.50
77793;BME280;66983;51.438;5.438;2023-05-29T09:54:29;102328.53;;;17.26;46.97
77793;BME280;66983;51.438;5.438;2023-05-29T09:56:55;102337.84;;;17.40;46.50
77793;BME280;66983;51.438;5.438;2023-05-29T09:59:23;102345.38;;;17.52;45.35
77793;BME280;66983;51.438;5.438;2023-05-29T10:02:02;102348.75;;;17.57;46.50
77793;BME280;66983;51.438;5.438;2023-05-29T10:04:31;102347.56;;;17.64;45.94
77793;BME280;66983;51.438;5.438;2023-05-29T10:07:09;102345.94;;;17.80;44.98
77793;BME280;66983;51.438;5.438;2023-05-29T10:09:42;102343.09;;;17.83;46.44
77793;BME280;66983;51.438;5.438;2023-05-29T10:12:11;102342.53;;;17.95;44.53
77793;BME280;66983;51.438;5.438;2023-05-29T10:14:38;102327.81;;;18.03;46.01
77793;BME280;66983;51.438;5.438;2023-05-29T10:17:07;102338.13;;;18.13;47.35
77793;BME280;66983;51.438;5.438;2023-05-29T10:19:36;102331.84;;;18.13;44.87
77793;BME280;66983;51.438;5.438;2023-05-29T10:22:04;102329.50;;;18.05;45.41
77793;BME280;66983;51.438;5.438;2023-05-29T10:24:31;102338.94;;;18.15;45.65
77793;BME280;66983;51.438;5.438;2023-05-29T10:26:58;102334.97;;;18.22;45.40
77793;BME280;66983;51.438;5.438;2023-05-29T10:29:32;102333.75;;;18.29;44.83
77793;BME280;66983;51.438;5.438;2023-05-29T10:32:15;102331.66;;;18.36;45.36
77793;BME280;66983;51.438;5.438;2023-05-29T10:35:17;102313.59;;;18.55;44.10
77793;BME280;66983;51.438;5.438;2023-05-29T10:40:15;102317.25;;;18.73;45.07
77793;BME280;66983;51.438;5.438;2023-05-29T10:42:44;102324.53;;;18.90;44.00
77793;BME280;66983;51.438;5.438;2023-05-29T10:45:11;102326.59;;;19.02;45.16
77793;BME280;66983;51.438;5.438;2023-05-29T10:47:51;102328.34;;;18.86;44.70
77793;BME280;66983;51.438;5.438;2023-05-29T10:50:37;102317.09;;;18.95;43.94
77793;BME280;66983;51.438;5.438;2023-05-29T10:53:07;102326.81;;;18.97;44.27
77793;BME280;66983;51.438;5.438;2023-05-29T10:55:36;102321.41;;;18.97;44.27
77793;BME280;66983;51.438;5.438;2023-05-29T10:58:05;102312.22;;;19.02;45.79
77793;BME280;66983;51.438;5.438;2023-05-29T11:00:31;102328.13;;;19.08;44.01
77793;BME280;66983;51.438;5.438;2023-05-29T11:03:02;102320.75;;;19.11;44.57
77793;BME280;66983;51.438;5.438;2023-05-29T11:05:29;102310.88;;;19.10;43.50
77793;BME280;66983;51.438;5.438;2023-05-29T11:07:57;102318.03;;;19.11;43.50
77793;BME280;66983;51.438;5.438;2023-05-29T11:13:07;102305.78;;;19.04;44.42
77793;BME280;66983;51.438;5.438;2023-05-29T11:15:33;102305.47;;;19.10;42.74
77793;BME280;66983;51.438;5.438;2023-05-29T11:18:06;102302.06;;;19.07;43.77
77793;BME280;66983;51.438;5.438;2023-05-29T11:20:49;102295.13;;;19.01;44.51
77793;BME280;66983;51.438;5.438;2023-05-29T11:23:16;102296.56;;;19.08;43.33
77793;BME280;66983;51.438;5.438;2023-05-29T11:25:46;102297.84;;;19.18;43.65
77793;BME280;66983;51.438;5.438;2023-05-29T11:28:13;102297.13;;;19.15;43.41
77793;BME280;66983;51.438;5.438;2023-05-29T11:30:46;102287.84;;;19.20;44.24
77793;BME280;66983;51.438;5.438;2023-05-29T11:33:32;102295.47;;;19.47;44.04
77793;BME280;66983;51.438;5.438;2023-05-29T11:36:01;102300.31;;;19.57;43.26
77793;BME280;66983;51.438;5.438;2023-05-29T11:38:28;102299.28;;;19.43;42.30
77793;BME280;66983;51.438;5.438;2023-05-29T11:40:54;102300.69;;;19.32;42.55
77793;BME280;66983;51.438;5.438;2023-05-29T11:43:21;102301.66;;;19.14;42.40
77793;BME280;66983;51.438;5.438;2023-05-29T11:45:47;102301.81;;;19.28;42.97
77793;BME280;66983;51.438;5.438;2023-05-29T11:48:12;102296.63;;;19.24;41.72
77793;BME280;66983;51.438;5.438;2023-05-29T11:50:38;102288.28;;;19.28;41.95
77793;BME280;66983;51.438;5.438;2023-05-29T11:53:06;102293.94;;;19.41;41.88
77793;BME280;66983;51.438;5.438;2023-05-29T11:55:32;102289.41;;;19.42;40.46
77793;BME280;66983;51.438;5.438;2023-05-29T11:58:03;102289.97;;;19.31;42.48
77793;BME280;66983;51.438;5.438;2023-05-29T12:00:34;102287.97;;;19.35;42.95
77793;BME280;66983;51.438;5.438;2023-05-29T12:03:00;102295.63;;;19.61;42.91
77793;BME280;66983;51.438;5.438;2023-05-29T12:05:44;102287.72;;;19.74;41.09
77793;BME280;66983;51.438;5.438;2023-05-29T12:08:10;102285.03;;;19.74;41.61
77793;BME280;66983;51.438;5.438;2023-05-29T12:10:36;102287.53;;;19.77;41.38
77793;BME280;66983;51.438;5.438;2023-05-29T12:13:01;102285.22;;;19.86;40.91
77793;BME280;66983;51.438;5.438;2023-05-29T12:15:27;102291.75;;;19.82;41.17
77793;BME280;66983;51.438;5.438;2023-05-29T12:17:54;102290.63;;;19.86;42.17
77793;BME280;66983;51.438;5.438;2023-05-29T12:20:23;102292.13;;;19.92;40.87
77793;BME280;66983;51.438;5.438;2023-05-29T12:22:49;102292.38;;;19.87;41.25
77793;BME280;66983;51.438;5.438;2023-05-29T12:25:20;102284.66;;;19.80;41.74
77793;BME280;66983;51.438;5.438;2023-05-29T12:27:48;102289.44;;;19.92;41.29
77793;BME280;66983;51.438;5.438;2023-05-29T12:30:20;102286.66;;;20.09;40.87
77793;BME280;66983;51.438;5.438;2023-05-29T12:32:51;102289.78;;;20.02;41.73
77793;BME280;66983;51.438;5.438;2023-05-29T12:35:22;102285.06;;;20.05;41.23
77793;BME280;66983;51.438;5.438;2023-05-29T12:37:56;102283.84;;;20.11;41.33
77793;BME280;66983;51.438;5.438;2023-05-29T12:40:23;102274.25;;;20.37;43.21
77793;BME280;66983;51.438;5.438;2023-05-29T12:42:58;102282.66;;;20.32;40.99
77793;BME280;66983;51.438;5.438;2023-05-29T12:45:26;102284.16;;;20.53;41.20
77793;BME280;66983;51.438;5.438;2023-05-29T12:50:25;102282.25;;;20.40;40.77
77793;BME280;66983;51.438;5.438;2023-05-29T12:52:58;102283.91;;;20.42;40.91
77793;BME280;66983;51.438;5.438;2023-05-29T12:55:25;102278.50;;;20.42;39.94
77793;BME280;66983;51.438;5.438;2023-05-29T12:57:51;102289.63;;;20.36;40.38
77793;BME280;66983;51.438;5.438;2023-05-29T13:00:17;102275.00;;;20.40;39.79
77793;BME280;66983;51.438;5.438;2023-05-29T13:02:44;102274.03;;;20.41;41.07
77793;BME280;66983;51.438;5.438;2023-05-29T13:05:10;102286.53;;;20.44;40.51
77793;BME280;66983;51.438;5.438;2023-05-29T13:07:36;102273.06;;;20.42;40.05
77793;BME280;66983;51.438;5.438;2023-05-29T13:10:01;102280.06;;;20.46;40.12